Terminal Aerodrome Forecast
Issued by NWS

Home | Current Version | Previous Version | Graphics & Text | Print | Product List | Glossary On
Versions: 1 2 3 4 5 6 7 8 9 10 11 12
251
FTUS43 KIWX 222328
TAFSBN
TAF
KSBN 222328Z 2300/2324 35008KT P6SM SKC
     FM230300 VRB03KT P6SM SKC
     FM231600 17006KT P6SM SKC=

USA.gov is the U.S. government's official web portal to all federal, state and local government web resources and services.